createdAt,value
2023-05-05T00:00:00.803Z,100776.90
2023-05-05T00:02:31.284Z,100770.27
2023-05-05T00:05:02.081Z,100770.80
2023-05-05T00:07:32.381Z,100770.81
2023-05-05T00:10:02.692Z,100770.30
2023-05-05T00:12:33.073Z,100771.18
2023-05-05T00:15:03.431Z,100775.38
2023-05-05T00:17:33.782Z,100767.70
2023-05-05T00:20:04.549Z,100769.28
2023-05-05T00:22:34.834Z,100769.65
2023-05-05T00:25:06.169Z,100770.52
2023-05-05T00:27:37.903Z,100767.05
2023-05-05T00:30:11.553Z,100766.17
2023-05-05T00:32:42.021Z,100765.14
2023-05-05T00:35:12.728Z,100765.80
2023-05-05T00:37:43.338Z,100763.73
2023-05-05T00:40:14.474Z,100759.02
2023-05-05T00:42:46.409Z,100757.79
2023-05-05T00:45:18.262Z,100755.70
2023-05-05T00:47:51.346Z,100752.20
2023-05-05T00:50:25.452Z,100754.80
2023-05-05T00:52:57.811Z,100753.97
2023-05-05T00:55:29.162Z,100752.75
2023-05-05T00:58:00.264Z,100756.40
2023-05-05T01:00:31.442Z,100752.55
2023-05-05T01:03:03.379Z,100752.91
2023-05-05T01:05:43.636Z,100754.83
2023-05-05T01:08:36.270Z,100749.06
2023-05-05T01:11:13.305Z,100745.74
2023-05-05T01:13:49.570Z,100743.47
2023-05-05T01:16:24.829Z,100742.60
2023-05-05T01:19:02.037Z,100742.77
2023-05-05T01:21:37.138Z,100743.48
2023-05-05T01:24:45.136Z,100740.33
2023-05-05T01:27:40.158Z,100738.41
2023-05-05T01:30:27.747Z,100730.74
2023-05-05T01:32:59.267Z,100727.97
2023-05-05T01:35:34.064Z,100732.67
2023-05-05T01:38:10.585Z,100732.14
2023-05-05T01:40:46.282Z,100733.91
2023-05-05T01:43:20.118Z,100730.23
2023-05-05T01:45:52.627Z,100726.40
2023-05-05T01:48:26.960Z,100725.70
2023-05-05T01:50:58.620Z,100722.92
2023-05-05T01:53:30.473Z,100723.96
2023-05-05T01:56:02.945Z,100721.70
2023-05-05T01:58:35.520Z,100723.45
2023-05-05T02:01:07.112Z,100726.23
2023-05-05T02:03:38.797Z,100729.55
2023-05-05T02:06:11.328Z,100728.85
2023-05-05T02:08:42.747Z,100727.80
2023-05-05T02:11:15.102Z,100723.26
2023-05-05T02:13:47.775Z,100725.69
2023-05-05T02:16:19.702Z,100723.95
2023-05-05T02:18:51.202Z,100722.56
2023-05-05T02:21:23.088Z,100722.90
2023-05-05T02:23:53.721Z,100717.48
2023-05-05T02:26:26.213Z,100718.17
2023-05-05T02:29:05.471Z,100716.59
2023-05-05T02:31:46.064Z,100714.69
2023-05-05T02:34:22.281Z,100707.70
2023-05-05T02:36:55.592Z,100709.09
2023-05-05T02:39:32.626Z,100705.45
2023-05-05T02:42:08.886Z,100706.86
2023-05-05T02:44:42.775Z,100706.33
2023-05-05T02:47:13.531Z,100705.48
2023-05-05T02:49:45.032Z,100708.61
2023-05-05T02:52:15.844Z,100707.91
2023-05-05T02:54:47.332Z,100706.88
2023-05-05T02:57:24.040Z,100713.51
2023-05-05T03:00:09.584Z,100712.80
2023-05-05T03:02:45.764Z,100716.28
2023-05-05T03:05:23.283Z,100719.96
2023-05-05T03:08:01.652Z,100715.08
2023-05-05T03:10:41.340Z,100714.20
2023-05-05T03:13:13.549Z,100722.21
2023-05-05T03:15:50.671Z,100723.97
2023-05-05T03:18:26.207Z,100722.39
2023-05-05T03:21:09.041Z,100726.23
2023-05-05T03:23:41.680Z,100731.29
2023-05-05T03:26:20.433Z,100735.65
2023-05-05T03:28:51.027Z,100736.70
2023-05-05T03:31:32.538Z,100737.56
2023-05-05T03:34:03.947Z,100737.73
2023-05-05T03:36:39.489Z,100742.09
2023-05-05T03:39:13.809Z,100741.22
2023-05-05T03:41:44.210Z,100742.64
2023-05-05T03:44:14.918Z,100737.22
2023-05-05T03:46:45.315Z,100740.18
2023-05-05T03:49:16.908Z,100739.31
2023-05-05T03:51:48.273Z,100738.79
2023-05-05T03:54:18.999Z,100740.00
2023-05-05T03:56:49.521Z,100747.33
2023-05-05T03:59:19.835Z,100749.77
2023-05-05T04:01:50.142Z,100745.93
2023-05-05T04:04:20.744Z,100744.70
2023-05-05T04:06:51.314Z,100744.88
2023-05-05T04:09:21.726Z,100744.54
2023-05-05T04:11:52.120Z,100743.31
2023-05-05T04:14:22.786Z,100746.27
2023-05-05T04:16:54.081Z,100745.05
2023-05-05T04:19:24.726Z,100739.82
2023-05-05T04:21:55.208Z,100734.77
2023-05-05T04:24:26.334Z,100736.35
2023-05-05T04:26:57.949Z,100736.87
2023-05-05T04:29:28.325Z,100743.14
2023-05-05T04:31:59.515Z,100742.79
2023-05-05T04:34:29.875Z,100744.89
2023-05-05T04:37:00.280Z,100748.38
2023-05-05T04:39:31.404Z,100750.29
2023-05-05T04:42:03.007Z,100750.11
2023-05-05T04:44:34.327Z,100755.18
2023-05-05T04:47:05.082Z,100758.30
2023-05-05T04:49:35.578Z,100760.35
2023-05-05T04:52:07.070Z,100760.48
2023-05-05T04:54:38.995Z,100763.92
2023-05-05T04:57:09.420Z,100765.08
2023-05-05T04:59:40.127Z,100762.88
2023-05-05T05:02:10.522Z,100761.54
2023-05-05T05:04:41.259Z,100756.92
2023-05-05T05:07:11.632Z,100754.60
2023-05-05T05:09:42.055Z,100754.56
2023-05-05T05:12:12.458Z,100757.69
2023-05-05T05:14:42.915Z,100759.88
2023-05-05T05:17:13.591Z,100762.27
2023-05-05T05:19:44.304Z,100763.41
2023-05-05T05:22:14.688Z,100758.94
2023-05-05T05:24:46.136Z,100765.99
2023-05-05T05:27:17.042Z,100764.30
2023-05-05T05:29:48.552Z,100772.23
2023-05-05T05:32:18.945Z,100771.42
2023-05-05T05:34:49.559Z,100774.64
2023-05-05T05:37:21.193Z,100775.73
2023-05-05T05:39:54.997Z,100773.02
2023-05-05T05:42:25.887Z,100775.16
2023-05-05T05:44:57.107Z,100781.39
2023-05-05T05:47:28.316Z,100786.06
2023-05-05T05:49:59.052Z,100784.25
2023-05-05T05:52:30.119Z,100791.53
2023-05-05T05:55:00.676Z,100793.40
2023-05-05T05:57:31.175Z,100790.71
2023-05-05T06:00:02.261Z,100794.14
2023-05-05T06:02:42.532Z,100795.10
2023-05-05T06:05:15.558Z,100791.85
2023-05-05T06:07:46.779Z,100796.50
2023-05-05T06:10:27.318Z,100796.11
2023-05-05T06:13:03.748Z,100794.02
2023-05-05T06:15:34.977Z,100793.61
2023-05-05T06:18:06.918Z,100789.05
2023-05-05T06:20:37.410Z,100786.34
2023-05-05T06:23:08.948Z,100785.56
2023-05-05T06:25:41.935Z,100784.27
2023-05-05T06:28:12.264Z,100789.33
2023-05-05T06:30:42.751Z,100789.78
2023-05-05T06:33:13.181Z,100793.37
2023-05-05T06:35:43.533Z,100793.41
2023-05-05T06:38:14.361Z,100794.09
2023-05-05T06:40:44.697Z,100788.91
2023-05-05T06:43:14.943Z,100791.92
2023-05-05T06:45:48.933Z,100791.84
2023-05-05T06:48:19.335Z,100794.46
2023-05-05T06:50:49.631Z,100793.18
2023-05-05T06:53:19.999Z,100794.73
2023-05-05T06:55:50.760Z,100788.94
2023-05-05T06:58:21.390Z,100783.90
2023-05-05T07:00:51.811Z,100783.81
2023-05-05T07:03:22.393Z,100779.95
2023-05-05T07:05:53.878Z,100781.96
2023-05-05T07:08:24.251Z,100779.02
2023-05-05T07:10:54.667Z,100774.58
2023-05-05T07:13:25.007Z,100772.98
2023-05-05T07:15:55.363Z,100780.21
2023-05-05T07:18:25.919Z,100777.45
2023-05-05T07:20:56.323Z,100777.95
2023-05-05T07:23:29.698Z,100776.06
2023-05-05T07:26:00.310Z,100775.21
2023-05-05T07:28:30.824Z,100775.73
2023-05-05T07:31:01.318Z,100771.16
2023-05-05T07:33:31.625Z,100777.09
2023-05-05T07:36:02.009Z,100773.05
2023-05-05T07:38:32.317Z,100783.14
2023-05-05T07:41:02.630Z,100771.67
2023-05-05T07:43:33.128Z,100773.06
2023-05-05T07:46:03.589Z,100769.96
2023-05-05T07:48:34.040Z,100768.29
2023-05-05T07:51:04.432Z,100768.16
2023-05-05T07:53:34.809Z,100771.09
2023-05-05T07:56:05.448Z,100773.00
2023-05-05T07:58:35.994Z,100770.89
2023-05-05T08:01:10.792Z,100769.95
2023-05-05T08:03:41.512Z,100765.39
2023-05-05T08:06:12.819Z,100766.73
2023-05-05T08:08:43.417Z,100767.90
2023-05-05T08:11:13.718Z,100763.46
2023-05-05T08:13:44.292Z,100762.46
2023-05-05T08:16:15.131Z,100763.00
2023-05-05T08:18:45.640Z,100763.58
2023-05-05T08:21:16.071Z,100760.45
2023-05-05T08:23:46.443Z,100762.38
2023-05-05T08:26:16.729Z,100762.44
2023-05-05T08:28:48.678Z,100761.91
2023-05-05T08:31:19.305Z,100761.86
2023-05-05T08:33:50.041Z,100763.39
2023-05-05T08:36:20.755Z,100763.09
2023-05-05T08:38:51.226Z,100760.63
2023-05-05T08:41:21.819Z,100763.09
2023-05-05T08:43:52.260Z,100764.48
2023-05-05T08:46:23.732Z,100769.03
2023-05-05T08:48:58.696Z,100764.30
2023-05-05T08:51:34.044Z,100761.37
2023-05-05T08:54:08.022Z,100757.99
2023-05-05T08:56:42.462Z,100754.94
2023-05-05T08:59:14.426Z,100758.62
2023-05-05T09:01:46.115Z,100756.21
2023-05-05T09:04:19.033Z,100755.59
2023-05-05T09:06:49.439Z,100756.69
2023-05-05T09:09:20.672Z,100755.45
2023-05-05T09:11:53.093Z,100753.52
2023-05-05T09:14:23.391Z,100750.80
2023-05-05T09:16:53.707Z,100746.84
2023-05-05T09:19:24.018Z,100744.61
2023-05-05T09:21:54.708Z,100745.64
2023-05-05T09:24:25.613Z,100742.96
2023-05-05T09:26:58.533Z,100742.65
2023-05-05T09:29:30.062Z,100745.41
2023-05-05T09:32:08.486Z,100738.27
2023-05-05T09:34:40.041Z,100740.55
2023-05-05T09:37:10.436Z,100741.33
2023-05-05T09:39:55.907Z,100733.23
2023-05-05T09:42:26.216Z,100726.82
2023-05-05T09:44:59.761Z,100728.27
2023-05-05T09:47:37.924Z,100728.88
2023-05-05T09:50:11.418Z,100730.50
2023-05-05T09:52:41.851Z,100730.22
2023-05-05T09:55:19.466Z,100736.00
2023-05-05T09:57:49.810Z,100733.95
2023-05-05T10:00:20.971Z,100734.91
2023-05-05T10:02:51.385Z,100728.27
2023-05-05T10:05:22.020Z,100729.58
2023-05-05T10:07:52.611Z,100732.52
2023-05-05T10:10:23.024Z,100724.17
2023-05-05T10:12:54.553Z,100729.61
2023-05-05T10:15:25.610Z,100726.33
2023-05-05T10:18:07.838Z,100724.52
2023-05-05T10:20:43.012Z,100732.78
2023-05-05T10:23:19.604Z,100729.09
2023-05-05T10:26:01.590Z,100725.83
2023-05-05T10:28:42.462Z,100721.28
2023-05-05T10:31:26.066Z,100718.14
2023-05-05T10:34:05.077Z,100718.69
2023-05-05T10:36:37.320Z,100717.56
2023-05-05T10:39:09.568Z,100715.36
2023-05-05T10:41:40.279Z,100714.75
2023-05-05T10:44:12.369Z,100718.46
2023-05-05T10:46:44.228Z,100712.86
2023-05-05T10:49:26.814Z,100711.19
2023-05-05T10:52:06.860Z,100711.20
2023-05-05T10:54:46.767Z,100709.46
2023-05-05T10:57:20.033Z,100701.67
2023-05-05T10:59:50.411Z,100701.96
2023-05-05T11:02:25.518Z,100698.20
2023-05-05T11:05:18.409Z,100702.52
2023-05-05T11:07:50.347Z,100706.13
2023-05-05T11:10:23.300Z,100695.91
2023-05-05T11:13:21.304Z,100697.34
2023-05-05T11:15:54.228Z,100693.05
2023-05-05T11:18:38.916Z,100690.50
2023-05-05T11:21:17.395Z,100683.95
2023-05-05T11:23:52.952Z,100679.81
2023-05-05T11:26:53.098Z,100675.52
2023-05-05T11:29:23.391Z,100673.64
2023-05-05T11:32:13.734Z,100679.18
2023-05-05T11:34:52.006Z,100672.95
2023-05-05T11:37:25.322Z,100668.52
2023-05-05T11:40:09.400Z,100660.27
2023-05-05T11:42:40.103Z,100657.90
2023-05-05T11:45:24.939Z,100660.23
2023-05-05T11:48:15.455Z,100665.48
2023-05-05T11:50:46.636Z,100660.15
2023-05-05T11:53:17.470Z,100655.85
2023-05-05T11:55:47.767Z,100656.34
2023-05-05T11:58:21.910Z,100654.86
2023-05-05T12:00:52.575Z,100652.92
2023-05-05T12:03:23.678Z,100648.19
2023-05-05T12:05:57.639Z,100650.98
2023-05-05T12:08:28.059Z,100648.27
2023-05-05T12:11:06.458Z,100649.13
2023-05-05T12:13:37.258Z,100640.84
2023-05-05T12:16:17.247Z,100635.23
2023-05-05T12:18:47.612Z,100634.16
2023-05-05T12:21:20.106Z,100629.64
2023-05-05T12:23:51.046Z,100628.40
2023-05-05T12:26:29.336Z,100620.41
2023-05-05T12:29:00.771Z,100621.88
2023-05-05T12:31:39.108Z,100613.42
2023-05-05T12:34:11.269Z,100613.27
2023-05-05T12:36:42.348Z,100611.30
2023-05-05T12:39:13.012Z,100607.34
2023-05-05T12:41:43.454Z,100604.55
2023-05-05T12:44:13.801Z,100602.08
2023-05-05T12:46:52.925Z,100600.48
2023-05-05T12:49:23.232Z,100594.38
2023-05-05T12:51:57.705Z,100589.63
2023-05-05T12:54:29.799Z,100590.20
2023-05-05T12:57:11.728Z,100593.95
2023-05-05T12:59:42.105Z,100591.76
2023-05-05T13:02:12.458Z,100585.02
2023-05-05T13:04:53.076Z,100575.27
2023-05-05T13:07:24.006Z,100566.21
2023-05-05T13:10:07.504Z,100567.04
2023-05-05T13:12:38.194Z,100565.94
2023-05-05T13:15:11.066Z,100560.52
2023-05-05T13:17:42.187Z,100560.91
2023-05-05T13:20:14.047Z,100560.29
2023-05-05T13:22:44.359Z,100558.96
2023-05-05T13:25:14.783Z,100556.96
2023-05-05T13:27:45.074Z,100554.61
2023-05-05T13:30:16.844Z,100552.40
2023-05-05T13:32:47.163Z,100547.53
2023-05-05T13:35:17.748Z,100551.67
2023-05-05T13:37:48.439Z,100545.23
2023-05-05T13:40:18.742Z,100543.70
2023-05-05T13:42:49.090Z,100540.84
2023-05-05T13:45:19.842Z,100535.32
2023-05-05T13:47:50.263Z,100535.50
2023-05-05T13:50:20.590Z,100531.51
2023-05-05T13:52:50.899Z,100525.78
2023-05-05T13:55:21.488Z,100523.10
2023-05-05T13:57:51.789Z,100525.83
2023-05-05T14:00:23.229Z,100521.76
2023-05-05T14:02:53.551Z,100515.83
2023-05-05T14:05:24.278Z,100510.50
2023-05-05T14:07:55.330Z,100509.05
2023-05-05T14:10:26.259Z,100510.68
2023-05-05T14:12:56.581Z,100509.64
2023-05-05T14:15:26.860Z,100506.59
2023-05-05T14:17:57.399Z,100508.13
2023-05-05T14:20:27.947Z,100505.33
2023-05-05T14:22:58.675Z,100502.82
2023-05-05T14:25:29.058Z,100498.60
2023-05-05T14:27:59.465Z,100497.40
2023-05-05T14:30:29.781Z,100503.79
2023-05-05T14:33:01.364Z,100504.98
2023-05-05T14:35:32.328Z,100503.45
2023-05-05T14:38:02.683Z,100507.51
2023-05-05T14:40:33.025Z,100502.83
2023-05-05T14:43:03.357Z,100499.10
2023-05-05T14:45:35.937Z,100495.06
2023-05-05T14:48:06.815Z,100489.85
2023-05-05T14:50:37.131Z,100484.34
2023-05-05T14:53:07.718Z,100486.52
2023-05-05T14:55:38.478Z,100490.34
2023-05-05T14:58:08.851Z,100487.16
2023-05-05T15:00:39.210Z,100484.86
2023-05-05T15:03:10.643Z,100484.02
2023-05-05T15:05:41.085Z,100482.36
2023-05-05T15:08:11.498Z,100482.95
2023-05-05T15:10:41.773Z,100480.85
2023-05-05T15:13:13.031Z,100476.77
2023-05-05T15:15:43.866Z,100476.48
2023-05-05T15:18:14.447Z,100472.23
2023-05-05T15:20:44.767Z,100470.11
2023-05-05T15:23:15.473Z,100471.21
2023-05-05T15:25:46.200Z,100470.05
2023-05-05T15:28:17.365Z,100465.29
2023-05-05T15:30:47.660Z,100469.14
2023-05-05T15:33:17.965Z,100473.02
2023-05-05T15:35:48.356Z,100470.93
2023-05-05T15:38:18.713Z,100477.27
2023-05-05T15:40:50.271Z,100476.33
2023-05-05T15:43:20.700Z,100476.44
2023-05-05T15:45:54.486Z,100476.92
2023-05-05T15:48:24.777Z,100481.21
2023-05-05T15:50:55.083Z,100478.25
2023-05-05T15:53:26.804Z,100473.44
2023-05-05T15:55:57.157Z,100473.06
2023-05-05T15:58:27.507Z,100476.55
2023-05-05T16:00:58.056Z,100476.75
2023-05-05T16:03:28.897Z,100480.86
2023-05-05T16:05:59.465Z,100478.52
2023-05-05T16:08:30.342Z,100482.53
2023-05-05T16:11:01.285Z,100482.19
2023-05-05T16:13:31.671Z,100480.36
2023-05-05T16:16:02.085Z,100475.75
2023-05-05T16:18:32.466Z,100474.62
2023-05-05T16:21:03.255Z,100470.78
2023-05-05T16:23:33.664Z,100464.95
2023-05-05T16:26:04.698Z,100464.75
2023-05-05T16:28:35.083Z,100464.36
2023-05-05T16:31:05.800Z,100465.42
2023-05-05T16:33:40.650Z,100463.88
2023-05-05T16:36:12.855Z,100463.48
2023-05-05T16:38:43.795Z,100460.83
2023-05-05T16:41:14.190Z,100463.52
2023-05-05T16:43:44.685Z,100467.32
2023-05-05T16:46:15.288Z,100463.90
2023-05-05T16:48:45.915Z,100468.24
2023-05-05T16:51:16.200Z,100468.77
2023-05-05T16:53:48.842Z,100464.70
2023-05-05T16:56:19.519Z,100466.84
2023-05-05T16:58:49.882Z,100469.98
2023-05-05T17:01:20.234Z,100466.07
2023-05-05T17:03:50.581Z,100466.64
2023-05-05T17:06:21.147Z,100470.58
2023-05-05T17:08:51.503Z,100470.88
2023-05-05T17:11:21.886Z,100472.52
2023-05-05T17:13:52.282Z,100477.88
2023-05-05T17:16:22.673Z,100480.08
2023-05-05T17:18:54.396Z,100483.83
2023-05-05T17:21:24.964Z,100484.95
2023-05-05T17:23:55.322Z,100487.61
2023-05-05T17:26:25.701Z,100488.46
2023-05-05T17:28:56.044Z,100487.40
2023-05-05T17:31:26.484Z,100493.30
2023-05-05T17:33:56.989Z,100491.50
2023-05-05T17:36:27.318Z,100493.16
2023-05-05T17:38:57.660Z,100498.10
2023-05-05T17:41:30.879Z,100497.69
2023-05-05T17:44:01.212Z,100501.06
2023-05-05T17:46:31.742Z,100499.65
2023-05-05T17:49:02.817Z,100505.06
2023-05-05T17:51:33.295Z,100501.05
2023-05-05T17:54:03.561Z,100505.04
2023-05-05T17:56:36.869Z,100503.19
2023-05-05T17:59:07.255Z,100503.20
2023-05-05T18:01:37.652Z,100503.29
2023-05-05T18:04:07.981Z,100504.25
2023-05-05T18:06:38.366Z,100504.52
2023-05-05T18:09:10.874Z,100508.73
2023-05-05T18:11:42.270Z,100511.06
2023-05-05T18:14:12.544Z,100508.95
2023-05-05T18:16:48.720Z,100513.02
2023-05-05T18:19:20.805Z,100509.08
2023-05-05T18:21:52.391Z,100510.24
2023-05-05T18:24:22.918Z,100514.52
2023-05-05T18:26:54.353Z,100512.73
2023-05-05T18:29:24.647Z,100523.22
2023-05-05T18:31:55.278Z,100534.86
2023-05-05T18:34:26.353Z,100538.29
2023-05-05T18:36:57.158Z,100542.95
2023-05-05T18:39:28.339Z,100542.20
2023-05-05T18:41:58.693Z,100544.59
2023-05-05T18:44:29.196Z,100551.33
2023-05-05T18:46:59.877Z,100555.31
2023-05-05T18:49:31.543Z,100551.77
2023-05-05T18:52:02.580Z,100555.02
2023-05-05T18:54:33.503Z,100555.63
2023-05-05T18:57:04.680Z,100559.52
2023-05-05T18:59:35.453Z,100560.16
2023-05-05T19:02:06.560Z,100558.95
2023-05-05T19:04:38.093Z,100557.61
2023-05-05T19:07:16.331Z,100554.74
2023-05-05T19:09:54.423Z,100559.20
2023-05-05T19:12:24.768Z,100563.00
2023-05-05T19:14:55.119Z,100556.75
2023-05-05T19:17:27.983Z,100563.24
2023-05-05T19:19:58.308Z,100564.91
2023-05-05T19:22:28.695Z,100563.58
2023-05-05T19:24:59.066Z,100558.52
2023-05-05T19:27:29.475Z,100554.30
2023-05-05T19:29:59.769Z,100558.08
2023-05-05T19:32:30.063Z,100563.23
2023-05-05T19:35:00.624Z,100559.24
2023-05-05T19:37:31.395Z,100555.84
2023-05-05T19:40:01.751Z,100550.10
2023-05-05T19:42:32.091Z,100552.77
2023-05-05T19:45:02.550Z,100556.70
2023-05-05T19:47:32.859Z,100552.38
2023-05-05T19:50:03.350Z,100554.20
2023-05-05T19:52:33.890Z,100554.58
2023-05-05T19:55:05.550Z,100552.86
2023-05-05T19:57:35.976Z,100556.26
2023-05-05T20:00:08.385Z,100560.70
2023-05-05T20:02:39.061Z,100557.77
2023-05-05T20:05:13.766Z,100557.63
2023-05-05T20:07:44.244Z,100558.23
2023-05-05T20:10:15.805Z,100560.75
2023-05-05T20:12:48.254Z,100559.34
2023-05-05T20:15:20.241Z,100554.61
2023-05-05T20:17:50.928Z,100550.20
2023-05-05T20:20:23.546Z,100550.36
2023-05-05T20:22:54.153Z,100544.58
2023-05-05T20:25:24.579Z,100537.52
2023-05-05T20:27:54.919Z,100535.94
2023-05-05T20:30:25.618Z,100527.96
2023-05-05T20:32:56.088Z,100525.29
2023-05-05T20:35:26.786Z,100524.53
2023-05-05T20:37:57.252Z,100525.39
2023-05-05T20:40:27.926Z,100522.72
2023-05-05T20:42:58.718Z,100524.66
2023-05-05T20:45:31.644Z,100518.31
2023-05-05T20:48:02.477Z,100520.56
2023-05-05T20:50:33.104Z,100517.34
2023-05-05T20:53:03.408Z,100518.91
2023-05-05T20:55:33.913Z,100521.01
2023-05-05T20:58:05.427Z,100518.12
2023-05-05T21:00:36.311Z,100519.69
2023-05-05T21:03:06.805Z,100515.42
2023-05-05T21:05:37.202Z,100513.27
2023-05-05T21:08:08.158Z,100510.75
2023-05-05T21:10:38.573Z,100512.30
2023-05-05T21:13:08.967Z,100517.69
2023-05-05T21:15:40.127Z,100518.16
2023-05-05T21:18:10.693Z,100519.00
2023-05-05T21:20:41.105Z,100512.07
2023-05-05T21:23:11.844Z,100510.59
2023-05-05T21:25:42.183Z,100504.87
2023-05-05T21:28:12.524Z,100508.67
2023-05-05T21:30:42.811Z,100503.87
2023-05-05T21:33:14.176Z,100499.95
2023-05-05T21:35:44.544Z,100504.26
2023-05-05T21:38:14.866Z,100504.22
2023-05-05T21:40:45.274Z,100501.50
2023-05-05T21:43:15.562Z,100503.55
2023-05-05T21:45:46.371Z,100505.23
2023-05-05T21:48:16.675Z,100503.55
2023-05-05T21:50:47.139Z,100509.80
2023-05-05T21:53:17.466Z,100510.64
2023-05-05T21:55:48.011Z,100513.50
2023-05-05T21:58:18.381Z,100509.02
2023-05-05T22:00:51.189Z,100511.25
2023-05-05T22:03:22.093Z,100507.84
2023-05-05T22:05:52.709Z,100509.66
2023-05-05T22:08:26.017Z,100512.21
2023-05-05T22:10:56.359Z,100516.38
2023-05-05T22:13:26.685Z,100521.89
2023-05-05T22:15:57.107Z,100518.83
2023-05-05T22:18:27.475Z,100504.65
2023-05-05T22:20:58.298Z,100503.52
2023-05-05T22:23:28.671Z,100501.11
2023-05-05T22:26:01.161Z,100496.11
2023-05-05T22:28:31.664Z,100497.41
2023-05-05T22:31:02.046Z,100497.65
2023-05-05T22:33:33.100Z,100497.35
2023-05-05T22:36:03.485Z,100494.95
2023-05-05T22:38:34.482Z,100488.30
2023-05-05T22:41:04.989Z,100488.38
2023-05-05T22:43:35.378Z,100490.19
2023-05-05T22:46:05.991Z,100491.83
2023-05-05T22:48:36.419Z,100494.67
2023-05-05T22:51:07.640Z,100495.08
2023-05-05T22:53:39.172Z,100497.09
2023-05-05T22:56:09.762Z,100493.44
2023-05-05T22:58:40.209Z,100496.27
2023-05-05T23:01:10.701Z,100500.83
2023-05-05T23:03:41.510Z,100502.42
2023-05-05T23:06:11.893Z,100501.19
2023-05-05T23:08:42.761Z,100505.05
2023-05-05T23:11:14.294Z,100504.02
2023-05-05T23:13:44.613Z,100500.70
2023-05-05T23:16:15.052Z,100497.52
2023-05-05T23:18:45.473Z,100490.85
2023-05-05T23:21:15.848Z,100487.35
2023-05-05T23:23:46.176Z,100487.52
2023-05-05T23:26:16.911Z,100484.90
2023-05-05T23:28:47.215Z,100484.40
2023-05-05T23:31:17.550Z,100484.07
2023-05-05T23:33:47.904Z,100480.41
2023-05-05T23:36:19.887Z,100479.54
2023-05-05T23:38:50.270Z,100473.61
2023-05-05T23:41:20.596Z,100469.60
2023-05-05T23:43:50.985Z,100467.18
2023-05-05T23:46:21.326Z,100460.92
2023-05-05T23:48:51.848Z,100459.91
2023-05-05T23:51:22.375Z,100454.35
2023-05-05T23:53:52.690Z,100451.27
2023-05-05T23:56:23.290Z,100441.83
2023-05-05T23:58:56.426Z,100441.50
